createdAt,value
2018-02-05T00:01:50.859Z,19.02
2018-02-05T00:04:19.027Z,17.35
2018-02-05T00:06:47.262Z,19.20
2018-02-05T00:09:16.159Z,20.75
2018-02-05T00:11:45.066Z,17.27
2018-02-05T00:14:13.211Z,16.75
2018-02-05T00:16:42.142Z,17.70
2018-02-05T00:19:10.269Z,17.83
2018-02-05T00:21:39.191Z,16.35
2018-02-05T00:24:07.334Z,17.90
2018-02-05T00:26:35.462Z,17.73
2018-02-05T00:29:03.599Z,18.90
2018-02-05T00:31:31.731Z,18.45
2018-02-05T00:34:01.388Z,19.02
2018-02-05T00:36:29.533Z,18.08
2018-02-05T00:38:58.495Z,18.92
2018-02-05T00:41:26.722Z,19.58
2018-02-05T00:43:55.603Z,19.10
2018-02-05T00:46:23.729Z,19.50
2018-02-05T00:48:51.847Z,20.17
2018-02-05T00:51:19.979Z,18.73
2018-02-05T00:53:48.122Z,16.70
2018-02-05T00:56:16.358Z,17.85
2018-02-05T00:58:45.256Z,19.58
2018-02-05T01:01:13.408Z,18.50
2018-02-05T01:03:42.405Z,18.80
2018-02-05T01:06:11.306Z,17.65
2018-02-05T01:08:39.474Z,18.20
2018-02-05T01:11:08.387Z,17.98
2018-02-05T01:13:36.546Z,17.45
2018-02-05T01:16:05.443Z,17.20
2018-02-05T01:18:33.598Z,18.05
2018-02-05T01:21:02.500Z,17.17
2018-02-05T01:23:30.629Z,15.93
2018-02-05T01:25:58.775Z,16.77
2018-02-05T01:28:26.907Z,16.02
2018-02-05T01:30:55.820Z,18.42
2018-02-05T01:33:23.960Z,17.12
2018-02-05T01:35:52.097Z,16.83
2018-02-05T01:38:20.232Z,18.33
2018-02-05T01:40:48.366Z,15.50
2018-02-05T01:43:16.504Z,17.17
2018-02-05T01:45:44.663Z,17.65
2018-02-05T01:48:12.789Z,16.95
2018-02-05T01:50:41.305Z,17.50
2018-02-05T01:53:10.275Z,17.67
2018-02-05T01:55:39.174Z,17.23
2018-02-05T01:58:07.346Z,17.98
2018-02-05T02:00:36.255Z,16.97
2018-02-05T02:03:04.407Z,17.62
2018-02-05T02:05:33.392Z,17.58
2018-02-05T02:08:02.297Z,19.50
2018-02-05T02:10:30.449Z,18.95
2018-02-05T02:12:58.564Z,20.10
2018-02-05T02:15:26.722Z,17.23
2018-02-05T02:17:54.875Z,18.40
2018-02-05T02:20:23.010Z,19.30
2018-02-05T02:22:51.152Z,17.77
2018-02-05T02:25:19.386Z,19.50
2018-02-05T02:27:48.290Z,18.30
2018-02-05T02:30:16.424Z,18.05
2018-02-05T02:32:44.576Z,17.85
2018-02-05T02:35:12.702Z,17.30
2018-02-05T02:37:41.594Z,16.90
2018-02-05T02:40:09.735Z,17.30
2018-02-05T02:42:37.863Z,17.15
2018-02-05T02:45:06.128Z,17.60
2018-02-05T02:47:34.269Z,17.00
2018-02-05T02:50:03.180Z,14.80
2018-02-05T02:52:31.309Z,16.83
2018-02-05T02:54:59.433Z,14.43
2018-02-05T02:57:27.576Z,15.40
2018-02-05T02:59:56.583Z,16.23
2018-02-05T03:02:25.497Z,15.77
2018-02-05T03:04:53.630Z,15.38
2018-02-05T03:07:22.626Z,16.30
2018-02-05T03:09:51.516Z,16.12
2018-02-05T03:12:20.512Z,17.40
2018-02-05T03:14:49.444Z,16.35
2018-02-05T03:17:17.567Z,15.75
2018-02-05T03:19:45.690Z,16.15
2018-02-05T03:22:13.853Z,14.43
2018-02-05T03:24:42.010Z,13.80
2018-02-05T03:27:10.168Z,15.80
2018-02-05T03:29:38.277Z,14.82
2018-02-05T03:32:06.412Z,15.15
2018-02-05T03:34:35.306Z,16.12
2018-02-05T03:37:04.240Z,16.23
2018-02-05T03:39:32.400Z,15.73
2018-02-05T03:42:00.659Z,14.73
2018-02-05T03:44:28.791Z,15.38
2018-02-05T03:46:56.919Z,14.20
2018-02-05T03:49:25.075Z,15.20
2018-02-05T03:51:53.210Z,14.07
2018-02-05T03:54:21.362Z,14.98
2018-02-05T03:56:49.652Z,13.90
2018-02-05T03:59:17.744Z,14.27
2018-02-05T04:01:46.630Z,15.73
2018-02-05T04:04:15.627Z,13.85
2018-02-05T04:06:50.208Z,12.52
2018-02-05T04:09:18.337Z,12.82
2018-02-05T04:11:46.473Z,14.07
2018-02-05T04:14:16.117Z,13.70
2018-02-05T04:16:45.034Z,14.95
2018-02-05T04:19:13.153Z,15.05
2018-02-05T04:21:42.056Z,14.13
2018-02-05T04:24:10.966Z,15.98
2018-02-05T04:26:39.123Z,16.98
2018-02-05T04:29:08.174Z,15.90
2018-02-05T04:31:37.034Z,14.50
2018-02-05T04:34:05.183Z,14.38
2018-02-05T04:36:33.312Z,14.68
2018-02-05T04:39:01.443Z,15.63
2018-02-05T04:41:29.578Z,15.50
2018-02-05T04:43:58.468Z,15.32
2018-02-05T04:46:26.601Z,14.25
2018-02-05T04:48:54.744Z,15.20
2018-02-05T04:51:22.893Z,14.85
2018-02-05T04:53:51.805Z,14.77
2018-02-05T04:56:19.950Z,13.98
2018-02-05T04:58:48.984Z,13.30
2018-02-05T05:01:17.870Z,13.60
2018-02-05T05:03:46.031Z,13.25
2018-02-05T05:06:14.190Z,13.80
2018-02-05T05:08:43.082Z,15.00
2018-02-05T05:11:11.969Z,14.60
2018-02-05T05:13:40.900Z,14.20
2018-02-05T05:16:09.138Z,15.80
2018-02-05T05:18:38.025Z,13.95
2018-02-05T05:21:06.930Z,14.38
2018-02-05T05:23:35.063Z,14.40
2018-02-05T05:26:03.219Z,13.00
2018-02-05T05:28:31.345Z,12.30
2018-02-05T05:30:59.497Z,12.95
2018-02-05T05:33:28.406Z,13.45
2018-02-05T05:35:56.557Z,12.37
2018-02-05T05:38:25.466Z,11.83
2018-02-05T05:40:53.606Z,12.10
2018-02-05T05:43:21.806Z,11.90
2018-02-05T05:45:49.958Z,13.00
2018-02-05T05:48:18.119Z,12.35
2018-02-05T05:50:47.746Z,12.50
2018-02-05T05:53:16.639Z,11.50
2018-02-05T05:55:45.544Z,12.30
2018-02-05T05:58:13.676Z,13.15
2018-02-05T06:00:41.827Z,12.20
2018-02-05T06:03:09.967Z,11.80
2018-02-05T06:05:38.102Z,13.77
2018-02-05T06:08:10.997Z,12.57
2018-02-05T06:10:39.130Z,12.02
2018-02-05T06:13:07.363Z,14.60
2018-02-05T06:15:36.251Z,12.32
2018-02-05T06:18:04.402Z,12.43
2018-02-05T06:20:33.295Z,12.40
2018-02-05T06:23:02.223Z,13.57
2018-02-05T06:25:30.363Z,12.43
2018-02-05T06:27:58.519Z,15.45
2018-02-05T06:30:26.722Z,14.13
2018-02-05T06:32:55.618Z,14.50
2018-02-05T06:35:23.779Z,12.75
2018-02-05T06:37:52.659Z,15.30
2018-02-05T06:40:21.575Z,13.15
2018-02-05T06:42:49.746Z,13.65
2018-02-05T06:45:17.902Z,14.15
2018-02-05T06:47:46.804Z,12.70
2018-02-05T06:50:26.848Z,13.27
2018-02-05T06:53:07.735Z,12.77
2018-02-05T06:55:46.857Z,12.13
2018-02-05T06:58:15.740Z,13.57
2018-02-05T07:00:44.643Z,14.07
2018-02-05T07:03:12.772Z,14.75
2018-02-05T07:05:40.908Z,14.60
2018-02-05T07:08:09.043Z,13.00
2018-02-05T07:10:37.941Z,14.10
2018-02-05T07:13:06.083Z,14.32
2018-02-05T07:15:34.216Z,14.68
2018-02-05T07:18:02.340Z,13.55
2018-02-05T07:20:31.270Z,14.73
2018-02-05T07:22:59.402Z,13.40
2018-02-05T07:25:28.328Z,14.93
2018-02-05T07:27:56.467Z,14.98
2018-02-05T07:30:25.369Z,12.60
2018-02-05T07:32:54.279Z,14.32
2018-02-05T07:35:22.411Z,13.18
2018-02-05T07:37:51.333Z,13.00
2018-02-05T07:40:19.473Z,13.15
2018-02-05T07:42:47.596Z,13.13
2018-02-05T07:45:15.735Z,13.48
2018-02-05T07:47:44.656Z,13.32
2018-02-05T07:50:12.799Z,12.50
2018-02-05T07:52:41.699Z,12.63
2018-02-05T07:55:10.674Z,13.93
2018-02-05T07:57:39.572Z,13.30
2018-02-05T08:00:08.573Z,12.93
2018-02-05T08:02:36.707Z,12.40
2018-02-05T08:05:05.612Z,12.55
2018-02-05T08:07:34.608Z,12.48
2018-02-05T08:10:03.516Z,13.15
2018-02-05T08:12:31.671Z,13.07
2018-02-05T08:15:00.566Z,12.20
2018-02-05T08:17:29.465Z,13.55
2018-02-05T08:19:57.607Z,12.60
2018-02-05T08:22:25.774Z,13.70
2018-02-05T08:24:53.905Z,14.27
2018-02-05T08:27:22.081Z,12.93
2018-02-05T08:29:50.214Z,13.23
2018-02-05T08:32:19.215Z,13.70
2018-02-05T08:34:48.133Z,13.88
2018-02-05T08:37:16.267Z,13.43
2018-02-05T08:39:45.277Z,12.10
2018-02-05T08:42:14.176Z,12.32
2018-02-05T08:44:42.299Z,13.55
2018-02-05T08:47:10.526Z,14.02
2018-02-05T08:49:38.649Z,12.45
2018-02-05T08:52:06.788Z,13.67
2018-02-05T08:54:34.911Z,14.27
2018-02-05T08:57:03.811Z,12.50
2018-02-05T08:59:32.716Z,12.98
2018-02-05T09:02:01.625Z,12.70
2018-02-05T09:04:29.757Z,11.95
2018-02-05T09:06:58.737Z,11.02
2018-02-05T09:09:26.825Z,11.93
2018-02-05T09:11:55.742Z,11.70
2018-02-05T09:14:24.619Z,10.50
2018-02-05T09:16:53.515Z,12.73
2018-02-05T09:19:21.862Z,12.98
2018-02-05T09:21:50.786Z,14.27
2018-02-05T09:24:18.922Z,13.20
2018-02-05T09:26:48.574Z,13.27
2018-02-05T09:29:17.249Z,14.48
2018-02-05T09:31:45.378Z,13.48
2018-02-05T09:34:13.512Z,13.32
2018-02-05T09:36:41.666Z,14.40
2018-02-05T09:39:09.847Z,12.63
2018-02-05T09:41:38.807Z,12.98
2018-02-05T09:44:07.717Z,12.20
2018-02-05T09:46:35.839Z,13.13
2018-02-05T09:49:04.060Z,13.07
2018-02-05T09:51:33.136Z,12.05
2018-02-05T09:54:02.035Z,12.60
2018-02-05T09:56:30.926Z,13.02
2018-02-05T09:58:59.823Z,12.15
2018-02-05T10:01:27.962Z,12.90
2018-02-05T10:03:56.087Z,13.85
2018-02-05T10:06:24.212Z,13.48
2018-02-05T10:08:53.131Z,14.90
2018-02-05T10:11:21.257Z,14.32
2018-02-05T10:13:49.492Z,15.77
2018-02-05T10:16:18.394Z,15.63
2018-02-05T10:18:46.521Z,15.20
2018-02-05T10:21:15.511Z,17.20
2018-02-05T10:23:44.429Z,15.90
2018-02-05T10:26:12.585Z,14.80
2018-02-05T10:28:40.716Z,15.38
2018-02-05T10:31:08.881Z,15.80
2018-02-05T10:33:37.006Z,15.68
2018-02-05T10:36:05.895Z,15.43
2018-02-05T10:38:34.043Z,13.97
2018-02-05T10:41:03.053Z,15.23
2018-02-05T10:43:31.952Z,14.55
2018-02-05T10:46:00.086Z,15.13
2018-02-05T10:48:30.734Z,15.20
2018-02-05T10:50:59.623Z,14.05
2018-02-05T10:53:28.531Z,13.83
2018-02-05T10:55:57.417Z,13.55
2018-02-05T10:58:25.605Z,14.70
2018-02-05T11:00:54.517Z,19.10
2018-02-05T11:03:22.644Z,17.30
2018-02-05T11:05:51.550Z,15.38
2018-02-05T11:08:19.672Z,18.17
2018-02-05T11:10:47.808Z,15.80
2018-02-05T11:13:15.937Z,14.85
2018-02-05T11:15:44.097Z,14.70
2018-02-05T11:18:12.231Z,12.60
2018-02-05T11:20:40.347Z,11.60
2018-02-05T11:23:08.489Z,11.53
2018-02-05T11:25:36.615Z,11.80
2018-02-05T11:28:05.604Z,12.80
2018-02-05T11:30:34.494Z,12.73
2018-02-05T11:33:03.415Z,13.77
2018-02-05T11:35:31.529Z,13.73
2018-02-05T11:37:59.657Z,14.10
2018-02-05T11:40:27.805Z,13.32
2018-02-05T11:42:56.735Z,12.77
2018-02-05T11:45:24.863Z,13.65
2018-02-05T11:47:55.392Z,13.20
2018-02-05T11:50:24.400Z,13.88
2018-02-05T11:52:52.526Z,13.37
2018-02-05T11:55:20.738Z,14.13
2018-02-05T11:57:49.631Z,13.98
2018-02-05T12:00:17.765Z,12.98
2018-02-05T12:02:47.543Z,13.30
2018-02-05T12:05:16.431Z,13.10
2018-02-05T12:07:44.586Z,12.87
2018-02-05T12:10:12.735Z,14.45
2018-02-05T12:12:41.640Z,13.88
2018-02-05T12:15:09.812Z,14.13
2018-02-05T12:17:37.971Z,13.70
2018-02-05T12:20:06.896Z,13.68
2018-02-05T12:22:35.143Z,13.53
2018-02-05T12:25:04.058Z,11.60
2018-02-05T12:27:32.178Z,11.00
2018-02-05T12:30:00.337Z,11.48
2018-02-05T12:32:28.468Z,11.77
2018-02-05T12:34:56.607Z,11.02
2018-02-05T12:37:25.514Z,10.90
2018-02-05T12:39:53.654Z,10.85
2018-02-05T12:42:21.785Z,11.63
2018-02-05T12:44:49.943Z,9.55
2018-02-05T12:47:18.068Z,10.65
2018-02-05T12:49:46.991Z,10.73
2018-02-05T12:52:15.890Z,11.80
2018-02-05T12:54:44.782Z,11.63
2018-02-05T12:57:12.916Z,11.32
2018-02-05T13:02:39.797Z,12.37
2018-02-05T13:05:14.527Z,11.65
2018-02-05T13:07:43.509Z,12.00
2018-02-05T13:10:12.396Z,11.63
2018-02-05T13:12:41.399Z,12.30
2018-02-05T13:15:10.276Z,11.80
2018-02-05T13:17:39.191Z,11.77
2018-02-05T13:20:07.322Z,11.60
2018-02-05T13:22:35.474Z,11.77
2018-02-05T13:25:03.618Z,10.80
2018-02-05T13:27:31.751Z,12.27
2018-02-05T13:29:59.892Z,11.10
2018-02-05T13:32:28.043Z,12.30
2018-02-05T13:34:56.216Z,11.93
2018-02-05T13:37:24.380Z,11.20
2018-02-05T13:39:52.539Z,12.32
2018-02-05T13:42:21.560Z,11.50
2018-02-05T13:44:49.673Z,12.13
2018-02-05T13:47:17.806Z,12.40
2018-02-05T13:49:45.965Z,12.70
2018-02-05T13:52:14.080Z,13.90
2018-02-05T13:54:42.221Z,12.50
2018-02-05T13:57:10.373Z,13.73
2018-02-05T13:59:38.506Z,13.70
2018-02-05T14:02:06.631Z,13.93
2018-02-05T14:04:34.770Z,12.52
2018-02-05T14:07:03.670Z,12.97
2018-02-05T14:09:32.560Z,13.65
2018-02-05T14:12:00.694Z,14.13
2018-02-05T14:14:28.834Z,13.80
2018-02-05T14:16:56.977Z,14.40
2018-02-05T14:19:25.860Z,13.52
2018-02-05T14:21:54.755Z,13.73
2018-02-05T14:24:23.673Z,14.90
2018-02-05T14:26:51.818Z,15.40
2018-02-05T14:29:19.955Z,13.32
2018-02-05T14:31:48.164Z,13.45
2018-02-05T14:34:17.054Z,14.25
2018-02-05T14:36:45.952Z,15.00
2018-02-05T14:39:14.103Z,15.23
2018-02-05T14:41:43.012Z,17.33
2018-02-05T14:44:11.140Z,15.13
2018-02-05T14:46:40.818Z,15.70
2018-02-05T14:49:08.946Z,16.15
2018-02-05T14:51:37.841Z,16.50
2018-02-05T14:54:06.750Z,17.02
2018-02-05T14:56:35.719Z,16.17
2018-02-05T14:59:04.595Z,15.48
2018-02-05T15:01:32.734Z,17.07
2018-02-05T15:04:00.881Z,17.30
2018-02-05T15:06:28.997Z,15.93
2018-02-05T15:08:57.147Z,16.57
2018-02-05T15:11:25.269Z,16.42
2018-02-05T15:13:53.450Z,15.80
2018-02-05T15:16:21.884Z,16.58
2018-02-05T15:18:50.043Z,15.02
2018-02-05T15:21:18.159Z,16.50
2018-02-05T15:23:47.087Z,17.20
2018-02-05T15:26:15.230Z,17.87
2018-02-05T15:28:44.175Z,16.77
2018-02-05T15:31:12.299Z,16.40
2018-02-05T15:33:41.174Z,16.98
2018-02-05T15:36:10.114Z,17.98
2018-02-05T15:38:38.257Z,17.17
2018-02-05T15:41:07.151Z,17.45
2018-02-05T15:43:35.298Z,16.85
2018-02-05T15:46:04.192Z,15.85
2018-02-05T15:48:33.135Z,15.75
2018-02-05T15:51:01.251Z,18.15
2018-02-05T15:53:30.185Z,15.83
2018-02-05T15:55:58.303Z,17.25
2018-02-05T15:58:26.484Z,17.37
2018-02-05T16:00:54.669Z,16.17
2018-02-05T16:03:22.816Z,16.65
2018-02-05T16:05:50.933Z,18.27
2018-02-05T16:08:19.051Z,17.53
2018-02-05T16:10:47.204Z,15.85
2018-02-05T16:13:15.326Z,16.50
2018-02-05T16:15:44.232Z,17.17
2018-02-05T16:18:13.133Z,16.90
2018-02-05T16:20:41.283Z,15.93
2018-02-05T16:23:09.406Z,15.90
2018-02-05T16:25:37.544Z,16.60
2018-02-05T16:28:06.454Z,16.37
2018-02-05T16:30:34.599Z,15.25
2018-02-05T16:33:03.507Z,15.43
2018-02-05T16:35:31.645Z,15.88
2018-02-05T16:37:59.803Z,14.80
2018-02-05T16:40:27.949Z,16.15
2018-02-05T16:42:56.067Z,15.00
2018-02-05T16:45:24.206Z,14.90
2018-02-05T16:47:53.109Z,14.52
2018-02-05T16:50:21.230Z,13.00
2018-02-05T16:52:49.455Z,14.33
2018-02-05T16:55:17.590Z,13.57
2018-02-05T16:57:45.733Z,15.00
2018-02-05T17:00:14.734Z,13.30
2018-02-05T17:02:43.675Z,13.95
2018-02-05T17:05:11.814Z,14.63
2018-02-05T17:07:39.949Z,15.80
2018-02-05T17:10:08.959Z,14.90
2018-02-05T17:12:37.085Z,14.00
2018-02-05T17:15:05.227Z,14.00
2018-02-05T17:17:33.347Z,15.02
2018-02-05T17:20:01.500Z,14.93
2018-02-05T17:22:29.613Z,14.83
2018-02-05T17:24:58.519Z,14.20
2018-02-05T17:27:27.405Z,14.80
2018-02-05T17:29:55.519Z,15.95
2018-02-05T17:32:24.438Z,14.23
2018-02-05T17:34:52.567Z,14.85
2018-02-05T17:37:20.728Z,14.70
2018-02-05T17:39:48.871Z,14.70
2018-02-05T17:42:16.995Z,15.43
2018-02-05T17:44:45.965Z,15.07
2018-02-05T17:47:14.141Z,14.65
2018-02-05T17:49:42.275Z,15.75
2018-02-05T17:52:11.193Z,14.20
2018-02-05T17:54:39.427Z,16.95
2018-02-05T17:57:08.460Z,14.73
2018-02-05T17:59:36.628Z,14.48
2018-02-05T18:02:04.782Z,14.50
2018-02-05T18:04:33.812Z,12.95
2018-02-05T18:07:02.003Z,14.45
2018-02-05T18:09:30.374Z,14.38
2018-02-05T18:11:58.531Z,14.68
2018-02-05T18:14:26.662Z,13.30
2018-02-05T18:16:54.873Z,14.35
2018-02-05T18:19:23.060Z,14.75
2018-02-05T18:21:51.176Z,13.93
2018-02-05T18:24:20.085Z,14.77
2018-02-05T18:26:48.992Z,14.73
2018-02-05T18:29:17.153Z,13.35
2018-02-05T18:31:45.277Z,15.98
2018-02-05T18:34:13.502Z,14.70
2018-02-05T18:36:42.376Z,14.85
2018-02-05T18:39:11.277Z,15.63
2018-02-05T18:41:40.211Z,15.45
2018-02-05T18:44:08.343Z,14.18
2018-02-05T18:46:37.236Z,15.10
2018-02-05T18:49:05.401Z,13.68
2018-02-05T18:51:35.139Z,14.18
2018-02-05T18:54:05.559Z,13.65
2018-02-05T18:56:45.541Z,16.65
2018-02-05T18:59:13.706Z,17.17
2018-02-05T19:01:41.850Z,15.40
2018-02-05T19:04:10.061Z,13.13
2018-02-05T19:06:38.191Z,14.35
2018-02-05T19:09:06.336Z,14.90
2018-02-05T19:11:35.223Z,15.68
2018-02-05T19:14:04.366Z,16.35
2018-02-05T19:16:32.531Z,12.23
2018-02-05T19:19:00.713Z,15.35
2018-02-05T19:21:28.820Z,13.20
2018-02-05T19:23:56.962Z,14.60
2018-02-05T19:26:25.237Z,14.65
2018-02-05T19:28:53.400Z,14.10
2018-02-05T19:31:21.554Z,14.00
2018-02-05T19:33:50.618Z,14.10
2018-02-05T19:36:19.015Z,15.80
2018-02-05T19:38:47.934Z,15.93
2018-02-05T19:41:16.096Z,15.57
2018-02-05T19:43:44.249Z,15.30
2018-02-05T19:46:13.273Z,14.87
2018-02-05T19:48:41.450Z,15.00
2018-02-05T19:51:09.623Z,14.00
2018-02-05T19:53:38.622Z,14.17
2018-02-05T19:56:06.805Z,14.45
2018-02-05T19:58:35.063Z,15.00
2018-02-05T20:01:04.199Z,15.27
2018-02-05T20:03:32.425Z,14.18
2018-02-05T20:06:01.415Z,13.57
2018-02-05T20:08:29.579Z,14.60
2018-02-05T20:10:57.767Z,14.85
2018-02-05T20:13:25.964Z,15.05
2018-02-05T20:15:54.212Z,18.65
2018-02-05T20:18:22.387Z,15.77
2018-02-05T20:20:50.604Z,14.00
2018-02-05T20:23:18.844Z,14.87
2018-02-05T20:25:47.037Z,15.65
2018-02-05T20:28:15.665Z,14.82
2018-02-05T20:30:44.170Z,13.07
2018-02-05T20:33:12.390Z,14.15
2018-02-05T20:35:40.569Z,14.95
2018-02-05T20:38:08.763Z,14.30
2018-02-05T20:40:37.729Z,13.20
2018-02-05T20:43:05.982Z,12.68
2018-02-05T20:45:34.211Z,13.82
2018-02-05T20:48:03.233Z,19.92
2018-02-05T20:50:31.446Z,28.95
2018-02-05T20:52:59.718Z,14.05
2018-02-05T20:55:28.106Z,14.30
2018-02-05T20:57:56.307Z,12.95
2018-02-05T21:00:24.502Z,14.18
2018-02-05T21:02:52.809Z,14.85
2018-02-05T21:05:20.955Z,14.87
2018-02-05T21:07:49.161Z,14.80
2018-02-05T21:10:17.338Z,14.52
2018-02-05T21:12:46.392Z,14.05
2018-02-05T21:15:14.987Z,13.80
2018-02-05T21:17:43.143Z,19.33
2018-02-05T21:20:11.317Z,13.77
2018-02-05T21:22:39.488Z,14.47
2018-02-05T21:25:07.638Z,13.00
2018-02-05T21:27:35.844Z,13.95
2018-02-05T21:30:04.004Z,13.50
2018-02-05T21:32:32.147Z,13.07
2018-02-05T21:35:01.076Z,14.48
2018-02-05T21:37:29.260Z,14.50
2018-02-05T21:39:57.431Z,13.20
2018-02-05T21:42:25.617Z,13.95
2018-02-05T21:44:53.763Z,14.30
2018-02-05T21:47:22.152Z,14.00
2018-02-05T21:49:52.944Z,14.55
2018-02-05T21:52:21.157Z,13.80
2018-02-05T21:54:49.443Z,12.95
2018-02-05T21:57:17.582Z,14.10
2018-02-05T21:59:45.731Z,13.75
2018-02-05T22:02:14.656Z,13.53
2018-02-05T22:04:42.850Z,14.50
2018-02-05T22:07:11.069Z,13.20
2018-02-05T22:09:39.249Z,13.70
2018-02-05T22:12:07.437Z,13.93
2018-02-05T22:14:35.590Z,14.80
2018-02-05T22:17:03.748Z,13.73
2018-02-05T22:19:31.932Z,13.80
2018-02-05T22:22:00.056Z,13.60
2018-02-05T22:24:28.211Z,13.70
2018-02-05T22:26:56.352Z,14.45
2018-02-05T22:29:25.270Z,13.70
2018-02-05T22:31:53.401Z,13.10
2018-02-05T22:34:21.643Z,13.43
2018-02-05T22:36:49.770Z,14.60
2018-02-05T22:39:18.686Z,14.90
2018-02-05T22:41:46.847Z,14.20
2018-02-05T22:44:15.735Z,13.62
2018-02-05T22:46:43.887Z,14.80
2018-02-05T22:49:13.033Z,14.70
2018-02-05T22:51:41.172Z,13.90
2018-02-05T22:54:09.362Z,14.90
2018-02-05T22:56:37.490Z,13.55
2018-02-05T22:59:05.631Z,14.65
2018-02-05T23:01:33.758Z,15.60
2018-02-05T23:04:01.911Z,14.57
2018-02-05T23:06:30.043Z,15.43
2018-02-05T23:08:58.232Z,14.90
2018-02-05T23:11:26.367Z,15.82
2018-02-05T23:13:54.509Z,14.43
2018-02-05T23:16:23.404Z,16.58
2018-02-05T23:18:52.303Z,15.73
2018-02-05T23:21:21.204Z,15.75
2018-02-05T23:23:49.343Z,15.80
2018-02-05T23:26:17.502Z,15.73
2018-02-05T23:28:45.635Z,15.73
2018-02-05T23:31:13.775Z,16.08
2018-02-05T23:33:42.672Z,14.77
2018-02-05T23:36:11.583Z,14.35
2018-02-05T23:38:39.721Z,14.73
2018-02-05T23:41:08.630Z,15.88
2018-02-05T23:43:37.550Z,14.75
2018-02-05T23:46:05.683Z,15.18
2018-02-05T23:48:34.629Z,14.10
2018-02-05T23:51:03.536Z,16.27
2018-02-05T23:53:31.667Z,15.40
2018-02-05T23:55:59.809Z,15.70
2018-02-05T23:58:28.711Z,15.55
